sensor_id;sensor_type;location;lat;lon;timestamp;noise_LAeq;noise_LA_min;noise_LA_max;noise_LA01;noise_LA95
80864;Laerm;70936;51.680;5.974;2023-10-08T00:03:00;29.1;28.25;31.54;;
80864;Laerm;70936;51.680;5.974;2023-10-08T00:07:00;29.12;28.41;33.61;;
80864;Laerm;70936;51.680;5.974;2023-10-08T00:11:00;29.18;28.33;30.05;;
80864;Laerm;70936;51.680;5.974;2023-10-08T00:15:00;29.18;28.34;32.49;;
80864;Laerm;70936;51.680;5.974;2023-10-08T00:19:00;29.12;28.33;31.94;;
80864;Laerm;70936;51.680;5.974;2023-10-08T00:23:01;29.18;28.4;32.89;;
80864;Laerm;70936;51.680;5.974;2023-10-08T00:27:00;29.27;28.43;34.05;;
80864;Laerm;70936;51.680;5.974;2023-10-08T00:31:01;29.29;28.36;37.61;;
80864;Laerm;70936;51.680;5.974;2023-10-08T00:35:00;29.47;28.26;39.82;;
80864;Laerm;70936;51.680;5.974;2023-10-08T00:39:02;29.25;28.42;35.44;;
80864;Laerm;70936;51.680;5.974;2023-10-08T00:43:00;29.26;28.5;30.92;;
80864;Laerm;70936;51.680;5.974;2023-10-08T00:47:00;29.08;28.33;30.91;;
80864;Laerm;70936;51.680;5.974;2023-10-08T00:51:01;29.07;28.34;30.06;;
80864;Laerm;70936;51.680;5.974;2023-10-08T00:55:00;29.1;28.34;32.14;;
80864;Laerm;70936;51.680;5.974;2023-10-08T00:59:00;29.13;28.38;30.01;;
80864;Laerm;70936;51.680;5.974;2023-10-08T01:03:00;29.17;28.42;31.42;;
80864;Laerm;70936;51.680;5.974;2023-10-08T01:07:01;29.08;28.33;31.72;;
80864;Laerm;70936;51.680;5.974;2023-10-08T01:11:15;29.08;28.27;30.9;;
80864;Laerm;70936;51.680;5.974;2023-10-08T01:15:01;29.09;28.3;30.05;;
80864;Laerm;70936;51.680;5.974;2023-10-08T01:19:00;29.19;28.37;32.93;;
80864;Laerm;70936;51.680;5.974;2023-10-08T01:23:01;29.16;28.32;31.26;;
80864;Laerm;70936;51.680;5.974;2023-10-08T01:27:00;29.14;28.2;35.09;;
80864;Laerm;70936;51.680;5.974;2023-10-08T01:31:00;29.09;28.33;30.09;;
80864;Laerm;70936;51.680;5.974;2023-10-08T01:35:00;29.21;28.47;31.3;;
80864;Laerm;70936;51.680;5.974;2023-10-08T01:39:00;29.06;28.14;30.08;;
80864;Laerm;70936;51.680;5.974;2023-10-08T01:43:00;29.08;28.31;33.71;;
80864;Laerm;70936;51.680;5.974;2023-10-08T01:47:00;29.07;28.35;30.57;;
80864;Laerm;70936;51.680;5.974;2023-10-08T01:51:00;29.27;28.37;36.98;;
80864;Laerm;70936;51.680;5.974;2023-10-08T01:55:00;29.15;28.35;29.95;;
80864;Laerm;70936;51.680;5.974;2023-10-08T01:59:00;29.13;28.31;32;;
80864;Laerm;70936;51.680;5.974;2023-10-08T02:03:00;29.1;28.34;31.89;;
80864;Laerm;70936;51.680;5.974;2023-10-08T02:07:01;29.11;28.23;29.81;;
80864;Laerm;70936;51.680;5.974;2023-10-08T02:11:00;29.19;28.3;31.34;;
80864;Laerm;70936;51.680;5.974;2023-10-08T02:15:00;29.15;28.41;33.44;;
80864;Laerm;70936;51.680;5.974;2023-10-08T02:19:00;29.07;28.37;30.81;;
80864;Laerm;70936;51.680;5.974;2023-10-08T02:23:00;29.1;28.29;31.79;;
80864;Laerm;70936;51.680;5.974;2023-10-08T02:27:00;29.08;28.41;30.04;;
80864;Laerm;70936;51.680;5.974;2023-10-08T02:31:00;29.2;28.4;30.96;;
80864;Laerm;70936;51.680;5.974;2023-10-08T02:35:00;29.08;28.29;36.59;;
80864;Laerm;70936;51.680;5.974;2023-10-08T02:39:00;29.12;28.36;33.98;;
80864;Laerm;70936;51.680;5.974;2023-10-08T02:43:00;29.21;28.49;30.04;;
80864;Laerm;70936;51.680;5.974;2023-10-08T02:47:00;29.06;28.37;31.26;;
80864;Laerm;70936;51.680;5.974;2023-10-08T02:51:00;29.07;28.29;29.78;;
80864;Laerm;70936;51.680;5.974;2023-10-08T02:55:00;29.09;28.31;31.6;;
80864;Laerm;70936;51.680;5.974;2023-10-08T02:59:00;29.07;28.34;31.92;;
80864;Laerm;70936;51.680;5.974;2023-10-08T03:03:01;29.07;28.36;30.06;;
80864;Laerm;70936;51.680;5.974;2023-10-08T03:07:00;29.18;28.44;29.98;;
80864;Laerm;70936;51.680;5.974;2023-10-08T03:11:00;29.1;28.35;31.31;;
80864;Laerm;70936;51.680;5.974;2023-10-08T03:15:01;29.08;28.23;31.92;;
80864;Laerm;70936;51.680;5.974;2023-10-08T03:19:01;29.07;28.36;30.01;;
80864;Laerm;70936;51.680;5.974;2023-10-08T03:23:00;29.07;28.27;29.82;;
80864;Laerm;70936;51.680;5.974;2023-10-08T03:27:00;29.21;28.48;31.57;;
80864;Laerm;70936;51.680;5.974;2023-10-08T03:31:00;29.08;28.31;30.61;;
80864;Laerm;70936;51.680;5.974;2023-10-08T03:35:00;29.12;28.4;32.32;;
80864;Laerm;70936;51.680;5.974;2023-10-08T03:39:00;29.06;28.31;30.23;;
80864;Laerm;70936;51.680;5.974;2023-10-08T03:43:00;29.18;28.31;35.22;;
80864;Laerm;70936;51.680;5.974;2023-10-08T03:47:00;29.24;28.38;33.54;;
80864;Laerm;70936;51.680;5.974;2023-10-08T03:51:01;29.08;28.2;31.67;;
80864;Laerm;70936;51.680;5.974;2023-10-08T03:55:00;29.33;28.39;36.74;;
80864;Laerm;70936;51.680;5.974;2023-10-08T03:59:00;29.06;28.29;29.81;;
80864;Laerm;70936;51.680;5.974;2023-10-08T04:03:00;30.68;28.34;47.42;;
80864;Laerm;70936;51.680;5.974;2023-10-08T04:07:00;29.47;28.45;35.24;;
80864;Laerm;70936;51.680;5.974;2023-10-08T04:11:00;29.29;28.45;34.43;;
80864;Laerm;70936;51.680;5.974;2023-10-08T04:15:00;29.05;28.23;29.76;;
80864;Laerm;70936;51.680;5.974;2023-10-08T04:19:00;29.05;28.18;30.12;;
80864;Laerm;70936;51.680;5.974;2023-10-08T04:23:01;29.2;28.15;36.51;;
80864;Laerm;70936;51.680;5.974;2023-10-08T04:27:00;29.18;28.42;45.62;;
80864;Laerm;70936;51.680;5.974;2023-10-08T04:31:00;29.19;28.41;31.07;;
80864;Laerm;70936;51.680;5.974;2023-10-08T04:35:00;29.22;28.38;40.1;;
80864;Laerm;70936;51.680;5.974;2023-10-08T04:39:00;35.71;28.43;61.9;;
80864;Laerm;70936;51.680;5.974;2023-10-08T04:43:00;47.62;31.36;73.23;;
80864;Laerm;70936;51.680;5.974;2023-10-08T04:47:01;46.44;31.07;73.96;;
80864;Laerm;70936;51.680;5.974;2023-10-08T04:51:00;43.07;31.46;66.85;;
80864;Laerm;70936;51.680;5.974;2023-10-08T04:55:00;45.58;31.53;71.56;;
80864;Laerm;70936;51.680;5.974;2023-10-08T04:59:00;48.33;31.02;73.73;;
80864;Laerm;70936;51.680;5.974;2023-10-08T05:03:00;32.43;31.04;41.34;;
80864;Laerm;70936;51.680;5.974;2023-10-08T05:07:00;32.44;30.75;35.36;;
80864;Laerm;70936;51.680;5.974;2023-10-08T05:11:00;32.34;30.98;35.77;;
80864;Laerm;70936;51.680;5.974;2023-10-08T05:15:00;32.21;30.86;35.87;;
80864;Laerm;70936;51.680;5.974;2023-10-08T05:19:00;32.11;30.49;36.38;;
80864;Laerm;70936;51.680;5.974;2023-10-08T05:23:00;32.31;30.92;41.45;;
80864;Laerm;70936;51.680;5.974;2023-10-08T05:27:00;32.24;30.75;36.93;;
80864;Laerm;70936;51.680;5.974;2023-10-08T05:31:06;33.32;30.94;54.76;;
80864;Laerm;70936;51.680;5.974;2023-10-08T05:35:00;32.33;31;36.64;;
80864;Laerm;70936;51.680;5.974;2023-10-08T05:39:00;32.25;30.89;35.36;;
80864;Laerm;70936;51.680;5.974;2023-10-08T05:43:00;32.41;31.08;35.99;;
80864;Laerm;70936;51.680;5.974;2023-10-08T05:47:01;32.37;30.96;35.21;;
80864;Laerm;70936;51.680;5.974;2023-10-08T05:51:05;32.53;30.93;42.66;;
80864;Laerm;70936;51.680;5.974;2023-10-08T05:55:00;32.34;30.98;36.16;;
80864;Laerm;70936;51.680;5.974;2023-10-08T05:59:00;32.27;30.91;39.92;;
80864;Laerm;70936;51.680;5.974;2023-10-08T06:03:00;32.29;30.66;38.14;;
80864;Laerm;70936;51.680;5.974;2023-10-08T06:07:00;32.97;30.81;53.8;;
80864;Laerm;70936;51.680;5.974;2023-10-08T06:11:01;32.11;30.83;35.11;;
80864;Laerm;70936;51.680;5.974;2023-10-08T06:15:00;32.05;30.76;35.94;;
80864;Laerm;70936;51.680;5.974;2023-10-08T06:19:00;33.23;30.72;56.33;;
80864;Laerm;70936;51.680;5.974;2023-10-08T06:23:00;41.56;30.87;66.68;;
80864;Laerm;70936;51.680;5.974;2023-10-08T06:27:00;43.51;31.09;68.34;;
80864;Laerm;70936;51.680;5.974;2023-10-08T06:31:01;43.2;31.08;58.59;;
80864;Laerm;70936;51.680;5.974;2023-10-08T06:35:00;35.66;30.82;61.48;;
80864;Laerm;70936;51.680;5.974;2023-10-08T06:39:00;43.75;30.89;69.58;;
80864;Laerm;70936;51.680;5.974;2023-10-08T06:43:02;40.95;30.14;66.34;;
80864;Laerm;70936;51.680;5.974;2023-10-08T06:47:00;47.48;30.89;72.38;;
80864;Laerm;70936;51.680;5.974;2023-10-08T06:51:00;46.19;30.69;74.39;;
80864;Laerm;70936;51.680;5.974;2023-10-08T06:55:00;49.58;30.74;71.27;;
80864;Laerm;70936;51.680;5.974;2023-10-08T06:59:00;50.34;30.59;75.5;;
80864;Laerm;70936;51.680;5.974;2023-10-08T07:03:00;52.16;30.53;74.89;;
80864;Laerm;70936;51.680;5.974;2023-10-08T07:07:00;50.85;30.09;72.44;;
80864;Laerm;70936;51.680;5.974;2023-10-08T07:11:01;32.76;30.37;50.23;;
80864;Laerm;70936;51.680;5.974;2023-10-08T07:15:00;49.14;30.66;73.27;;
80864;Laerm;70936;51.680;5.974;2023-10-08T07:19:00;34.65;30.48;58.74;;
80864;Laerm;70936;51.680;5.974;2023-10-08T07:23:00;33.03;30.91;54.41;;
80864;Laerm;70936;51.680;5.974;2023-10-08T07:27:01;32.64;30.76;38.08;;
80864;Laerm;70936;51.680;5.974;2023-10-08T07:31:00;43.3;30.84;72.09;;
80864;Laerm;70936;51.680;5.974;2023-10-08T07:35:00;32.48;29.82;37.83;;
80864;Laerm;70936;51.680;5.974;2023-10-08T07:39:00;42.66;28.47;67.7;;
80864;Laerm;70936;51.680;5.974;2023-10-08T07:43:00;45.7;28.32;70.66;;
80864;Laerm;70936;51.680;5.974;2023-10-08T07:47:00;32.63;28.41;53.39;;
80864;Laerm;70936;51.680;5.974;2023-10-08T07:51:01;51.47;28.49;83.28;;
80864;Laerm;70936;51.680;5.974;2023-10-08T07:55:00;38.63;28.55;66.08;;
80864;Laerm;70936;51.680;5.974;2023-10-08T07:59:00;36.94;28.85;57.78;;
80864;Laerm;70936;51.680;5.974;2023-10-08T08:03:00;37.08;28.65;58.2;;
80864;Laerm;70936;51.680;5.974;2023-10-08T08:07:00;38.19;28.87;65.12;;
80864;Laerm;70936;51.680;5.974;2023-10-08T08:11:00;45.91;28.83;67.32;;
80864;Laerm;70936;51.680;5.974;2023-10-08T08:15:00;46.31;29.29;71.11;;
80864;Laerm;70936;51.680;5.974;2023-10-08T08:19:00;43.31;28.55;60.05;;
80864;Laerm;70936;51.680;5.974;2023-10-08T08:23:00;45.99;28.55;63.58;;
80864;Laerm;70936;51.680;5.974;2023-10-08T08:27:00;48.94;28.72;73.11;;
80864;Laerm;70936;51.680;5.974;2023-10-08T08:31:02;43.38;28.62;58.87;;
80864;Laerm;70936;51.680;5.974;2023-10-08T08:35:00;47.44;28.37;66.85;;
80864;Laerm;70936;51.680;5.974;2023-10-08T08:39:00;44.72;28.54;64.1;;
80864;Laerm;70936;51.680;5.974;2023-10-08T08:43:00;47.7;28.58;67.11;;
80864;Laerm;70936;51.680;5.974;2023-10-08T08:47:00;48.58;28.68;68.03;;
80864;Laerm;70936;51.680;5.974;2023-10-08T08:51:00;39.54;28.45;60.15;;
80864;Laerm;70936;51.680;5.974;2023-10-08T08:55:00;35.04;28.42;63.83;;
80864;Laerm;70936;51.680;5.974;2023-10-08T08:59:00;35.55;28.39;55.89;;
80864;Laerm;70936;51.680;5.974;2023-10-08T09:03:00;38.25;28.45;60.69;;
80864;Laerm;70936;51.680;5.974;2023-10-08T09:07:00;42.85;28.61;63.89;;
80864;Laerm;70936;51.680;5.974;2023-10-08T09:11:00;43.97;28.55;65.53;;
80864;Laerm;70936;51.680;5.974;2023-10-08T09:15:01;39.02;28.45;63.03;;
80864;Laerm;70936;51.680;5.974;2023-10-08T09:19:01;44.61;28.63;70.14;;
80864;Laerm;70936;51.680;5.974;2023-10-08T09:23:08;38.13;28.63;57.78;;
80864;Laerm;70936;51.680;5.974;2023-10-08T09:27:00;39.61;28.57;60.01;;
80864;Laerm;70936;51.680;5.974;2023-10-08T09:31:00;34.59;28.43;58.6;;
80864;Laerm;70936;51.680;5.974;2023-10-08T09:35:00;37.77;28.53;59.41;;
80864;Laerm;70936;51.680;5.974;2023-10-08T09:39:01;30.21;28.58;40.28;;
80864;Laerm;70936;51.680;5.974;2023-10-08T09:43:00;41.26;28.41;63.15;;
80864;Laerm;70936;51.680;5.974;2023-10-08T09:47:02;39.51;28.6;66.46;;
80864;Laerm;70936;51.680;5.974;2023-10-08T09:51:00;41.01;28.47;65.13;;
80864;Laerm;70936;51.680;5.974;2023-10-08T09:55:01;32.55;28.54;50.63;;
80864;Laerm;70936;51.680;5.974;2023-10-08T09:59:00;48.49;28.39;76.13;;
80864;Laerm;70936;51.680;5.974;2023-10-08T10:03:00;38.68;28.46;67.06;;
80864;Laerm;70936;51.680;5.974;2023-10-08T10:07:07;46.7;28.76;75.19;;
80864;Laerm;70936;51.680;5.974;2023-10-08T10:11:01;32.04;28.73;40.13;;
80864;Laerm;70936;51.680;5.974;2023-10-08T10:15:00;32.03;28.58;39.29;;
80864;Laerm;70936;51.680;5.974;2023-10-08T10:19:00;30.45;28.32;36.92;;
80864;Laerm;70936;51.680;5.974;2023-10-08T10:23:03;29.59;28.29;35.49;;
80864;Laerm;70936;51.680;5.974;2023-10-08T10:27:16;43.14;28.46;69.64;;
80864;Laerm;70936;51.680;5.974;2023-10-08T10:31:00;49.37;28.76;73.1;;
80864;Laerm;70936;51.680;5.974;2023-10-08T10:35:00;45.85;28.45;66.38;;
80864;Laerm;70936;51.680;5.974;2023-10-08T10:39:00;43.48;28.97;64.74;;
80864;Laerm;70936;51.680;5.974;2023-10-08T10:43:01;46.16;28.61;72.63;;
80864;Laerm;70936;51.680;5.974;2023-10-08T10:47:01;32.83;28.4;50.37;;
80864;Laerm;70936;51.680;5.974;2023-10-08T10:51:00;35.49;28.65;64.45;;
80864;Laerm;70936;51.680;5.974;2023-10-08T10:55:02;44.84;28.68;68.75;;
80864;Laerm;70936;51.680;5.974;2023-10-08T10:59:01;49.31;28.64;78.91;;
80864;Laerm;70936;51.680;5.974;2023-10-08T11:03:01;30.29;28.5;51.2;;
80864;Laerm;70936;51.680;5.974;2023-10-08T11:07:00;44.95;28.6;73.79;;
80864;Laerm;70936;51.680;5.974;2023-10-08T11:11:01;30.25;28.67;40.59;;
80864;Laerm;70936;51.680;5.974;2023-10-08T11:15:00;29.97;28.58;38.18;;
80864;Laerm;70936;51.680;5.974;2023-10-08T11:19:00;30.33;28.68;40.07;;
80864;Laerm;70936;51.680;5.974;2023-10-08T11:23:00;40.69;28.54;66.9;;
80864;Laerm;70936;51.680;5.974;2023-10-08T11:27:00;34.32;28.65;56.14;;
80864;Laerm;70936;51.680;5.974;2023-10-08T11:31:01;45.77;28.58;73.72;;
80864;Laerm;70936;51.680;5.974;2023-10-08T11:35:01;44.26;28.64;72.58;;
80864;Laerm;70936;51.680;5.974;2023-10-08T11:39:09;47.97;28.68;78.45;;
80864;Laerm;70936;51.680;5.974;2023-10-08T11:43:00;30.65;28.66;51.58;;
80864;Laerm;70936;51.680;5.974;2023-10-08T11:47:00;29.98;28.47;35.76;;
80864;Laerm;70936;51.680;5.974;2023-10-08T11:51:00;36.93;28.77;61.15;;
80864;Laerm;70936;51.680;5.974;2023-10-08T11:55:00;39.49;28.69;66.1;;
80864;Laerm;70936;51.680;5.974;2023-10-08T11:59:01;29.96;28.37;37.65;;
80864;Laerm;70936;51.680;5.974;2023-10-08T12:03:00;44.94;28.61;73.09;;
80864;Laerm;70936;51.680;5.974;2023-10-08T12:07:00;29.94;28.43;35.64;;
80864;Laerm;70936;51.680;5.974;2023-10-08T12:11:00;47.41;28.6;67.71;;
80864;Laerm;70936;51.680;5.974;2023-10-08T12:15:00;36.23;28.8;66.48;;
80864;Laerm;70936;51.680;5.974;2023-10-08T12:19:01;36.68;28.59;65.75;;
80864;Laerm;70936;51.680;5.974;2023-10-08T12:23:01;30.35;28.58;37.61;;
80864;Laerm;70936;51.680;5.974;2023-10-08T12:27:00;33;28.8;54.02;;
80864;Laerm;70936;51.680;5.974;2023-10-08T12:31:00;30.29;28.51;39.24;;
80864;Laerm;70936;51.680;5.974;2023-10-08T12:35:00;30.94;28.49;43.21;;
80864;Laerm;70936;51.680;5.974;2023-10-08T12:43:00;30.18;28.64;37.97;;
80864;Laerm;70936;51.680;5.974;2023-10-08T12:47:00;39.12;28.77;65.96;;
80864;Laerm;70936;51.680;5.974;2023-10-08T12:51:01;38.93;28.59;66.49;;
80864;Laerm;70936;51.680;5.974;2023-10-08T12:55:00;32.88;28.66;50.38;;
80864;Laerm;70936;51.680;5.974;2023-10-08T12:59:01;33.3;28.51;57.93;;
80864;Laerm;70936;51.680;5.974;2023-10-08T13:03:00;30.03;28.55;35.74;;
80864;Laerm;70936;51.680;5.974;2023-10-08T13:07:00;41.24;28.66;65.66;;
80864;Laerm;70936;51.680;5.974;2023-10-08T13:11:00;29.74;28.69;34.74;;
80864;Laerm;70936;51.680;5.974;2023-10-08T13:15:00;29.98;28.65;41.09;;
80864;Laerm;70936;51.680;5.974;2023-10-08T13:19:00;29.96;28.67;39.06;;
80864;Laerm;70936;51.680;5.974;2023-10-08T13:23:00;29.78;28.47;33.86;;
80864;Laerm;70936;51.680;5.974;2023-10-08T13:27:00;29.98;28.53;36.65;;
80864;Laerm;70936;51.680;5.974;2023-10-08T13:31:00;30.01;28.57;38.05;;
80864;Laerm;70936;51.680;5.974;2023-10-08T13:35:01;30.55;28.63;38.01;;
80864;Laerm;70936;51.680;5.974;2023-10-08T13:39:00;29.93;28.46;39.74;;
80864;Laerm;70936;51.680;5.974;2023-10-08T13:43:00;41.03;28.71;65.44;;
80864;Laerm;70936;51.680;5.974;2023-10-08T13:47:00;29.73;28.51;36.43;;
80864;Laerm;70936;51.680;5.974;2023-10-08T13:51:01;30.2;28.44;43.22;;
80864;Laerm;70936;51.680;5.974;2023-10-08T13:55:00;30.32;28.66;50.03;;
80864;Laerm;70936;51.680;5.974;2023-10-08T13:59:00;30.24;28.55;43.78;;
80864;Laerm;70936;51.680;5.974;2023-10-08T14:03:01;31.07;28.58;43.81;;
80864;Laerm;70936;51.680;5.974;2023-10-08T14:07:00;31.72;28.63;54.41;;
80864;Laerm;70936;51.680;5.974;2023-10-08T14:11:00;30.28;28.64;44.76;;
80864;Laerm;70936;51.680;5.974;2023-10-08T14:15:01;30.87;28.6;46.59;;
80864;Laerm;70936;51.680;5.974;2023-10-08T14:19:00;29.81;28.58;45.96;;
80864;Laerm;70936;51.680;5.974;2023-10-08T14:23:00;30.94;28.51;55.94;;
80864;Laerm;70936;51.680;5.974;2023-10-08T14:27:00;30.08;28.6;39.14;;
80864;Laerm;70936;51.680;5.974;2023-10-08T14:31:00;30.68;28.47;50.89;;
80864;Laerm;70936;51.680;5.974;2023-10-08T14:35:00;30.19;28.59;39.21;;
80864;Laerm;70936;51.680;5.974;2023-10-08T14:39:00;38.19;28.61;69.07;;
80864;Laerm;70936;51.680;5.974;2023-10-08T14:43:00;30.1;28.53;40.12;;
80864;Laerm;70936;51.680;5.974;2023-10-08T14:47:00;30.18;28.5;38.08;;
80864;Laerm;70936;51.680;5.974;2023-10-08T14:51:00;38.63;28.61;67.11;;
80864;Laerm;70936;51.680;5.974;2023-10-08T14:55:01;30.92;28.55;48.64;;
80864;Laerm;70936;51.680;5.974;2023-10-08T14:59:00;36.46;28.54;59.46;;
80864;Laerm;70936;51.680;5.974;2023-10-08T15:03:01;41.62;28.82;68.41;;
80864;Laerm;70936;51.680;5.974;2023-10-08T15:07:00;47.73;28.63;77.1;;
80864;Laerm;70936;51.680;5.974;2023-10-08T15:11:00;45.52;36.19;67.53;;
80864;Laerm;70936;51.680;5.974;2023-10-08T15:15:00;50.13;39.42;67.66;;
80864;Laerm;70936;51.680;5.974;2023-10-08T15:19:00;50.04;35.53;71.8;;
80864;Laerm;70936;51.680;5.974;2023-10-08T15:23:00;45.24;33.93;71.7;;
80864;Laerm;70936;51.680;5.974;2023-10-08T15:27:00;51.4;29;76.25;;
80864;Laerm;70936;51.680;5.974;2023-10-08T15:31:00;47.2;28.88;68.08;;
80864;Laerm;70936;51.680;5.974;2023-10-08T15:35:00;52.13;28.81;76.75;;
80864;Laerm;70936;51.680;5.974;2023-10-08T15:39:00;54.17;28.86;83.3;;
80864;Laerm;70936;51.680;5.974;2023-10-08T15:43:00;48.54;28.92;72.99;;
80864;Laerm;70936;51.680;5.974;2023-10-08T15:47:00;55.93;28.63;77.33;;
80864;Laerm;70936;51.680;5.974;2023-10-08T15:51:00;53.74;29.09;76.66;;
80864;Laerm;70936;51.680;5.974;2023-10-08T15:55:00;52.82;28.84;75.95;;
80864;Laerm;70936;51.680;5.974;2023-10-08T15:59:00;52.66;28.74;73.11;;
80864;Laerm;70936;51.680;5.974;2023-10-08T16:03:00;40.13;28.51;64.24;;
80864;Laerm;70936;51.680;5.974;2023-10-08T16:07:00;31.08;28.67;49.05;;
80864;Laerm;70936;51.680;5.974;2023-10-08T16:11:00;36.03;28.69;61.16;;
80864;Laerm;70936;51.680;5.974;2023-10-08T16:15:01;31.1;28.6;46.69;;
80864;Laerm;70936;51.680;5.974;2023-10-08T16:19:01;35.47;28.53;56.66;;
80864;Laerm;70936;51.680;5.974;2023-10-08T16:23:00;37.42;28.73;64.03;;
80864;Laerm;70936;51.680;5.974;2023-10-08T16:27:00;31.79;28.63;49.65;;
80864;Laerm;70936;51.680;5.974;2023-10-08T16:31:00;32.22;28.5;50.18;;
80864;Laerm;70936;51.680;5.974;2023-10-08T16:35:00;31.21;28.53;44.38;;
80864;Laerm;70936;51.680;5.974;2023-10-08T16:39:00;31.73;28.67;50.2;;
80864;Laerm;70936;51.680;5.974;2023-10-08T16:43:00;31.56;28.65;48.6;;
80864;Laerm;70936;51.680;5.974;2023-10-08T16:47:00;35.22;28.51;55.23;;
80864;Laerm;70936;51.680;5.974;2023-10-08T16:51:00;36.06;28.64;57;;
80864;Laerm;70936;51.680;5.974;2023-10-08T16:55:00;34.85;28.7;54.62;;
80864;Laerm;70936;51.680;5.974;2023-10-08T16:59:00;34.72;28.85;51.09;;
80864;Laerm;70936;51.680;5.974;2023-10-08T17:03:00;33.47;28.52;52.36;;
80864;Laerm;70936;51.680;5.974;2023-10-08T17:07:00;31.77;28.48;49.51;;
80864;Laerm;70936;51.680;5.974;2023-10-08T17:11:00;40.29;28.6;68.59;;
80864;Laerm;70936;51.680;5.974;2023-10-08T17:15:00;34.57;28.67;50.89;;
80864;Laerm;70936;51.680;5.974;2023-10-08T17:19:00;41.74;28.81;70.39;;
80864;Laerm;70936;51.680;5.974;2023-10-08T17:23:00;37.95;28.62;53.58;;
80864;Laerm;70936;51.680;5.974;2023-10-08T17:27:00;36.37;28.48;53.28;;
80864;Laerm;70936;51.680;5.974;2023-10-08T17:31:00;35.17;28.62;53.61;;
80864;Laerm;70936;51.680;5.974;2023-10-08T17:35:00;33.4;28.65;49.95;;
80864;Laerm;70936;51.680;5.974;2023-10-08T17:39:00;36.2;28.76;54.87;;
80864;Laerm;70936;51.680;5.974;2023-10-08T17:43:00;37.12;28.43;53.41;;
80864;Laerm;70936;51.680;5.974;2023-10-08T17:47:00;36.35;28.69;53.61;;
80864;Laerm;70936;51.680;5.974;2023-10-08T17:51:00;39.43;28.79;65.08;;
80864;Laerm;70936;51.680;5.974;2023-10-08T17:55:00;33.86;28.81;60.31;;
80864;Laerm;70936;51.680;5.974;2023-10-08T17:59:00;38.87;28.44;62.67;;
80864;Laerm;70936;51.680;5.974;2023-10-08T18:03:00;33.14;28.57;61.26;;
80864;Laerm;70936;51.680;5.974;2023-10-08T18:07:01;33.07;28.59;55.13;;
80864;Laerm;70936;51.680;5.974;2023-10-08T18:11:00;32.5;28.5;44.25;;
80864;Laerm;70936;51.680;5.974;2023-10-08T18:15:00;32.37;28.63;40.57;;
80864;Laerm;70936;51.680;5.974;2023-10-08T18:19:00;32.24;28.72;42.05;;
80864;Laerm;70936;51.680;5.974;2023-10-08T18:23:00;32.81;28.61;43.55;;
80864;Laerm;70936;51.680;5.974;2023-10-08T18:27:00;35.32;28.74;51.85;;
80864;Laerm;70936;51.680;5.974;2023-10-08T18:31:00;33.7;28.75;46.6;;
80864;Laerm;70936;51.680;5.974;2023-10-08T18:35:00;33.58;28.71;53.29;;
80864;Laerm;70936;51.680;5.974;2023-10-08T18:39:00;36.3;28.84;61.44;;
80864;Laerm;70936;51.680;5.974;2023-10-08T18:43:00;32.59;28.63;50.13;;
80864;Laerm;70936;51.680;5.974;2023-10-08T18:47:00;31.71;28.65;41.62;;
80864;Laerm;70936;51.680;5.974;2023-10-08T18:51:04;32.49;28.49;43.9;;
80864;Laerm;70936;51.680;5.974;2023-10-08T18:55:00;31.97;28.87;40.5;;
80864;Laerm;70936;51.680;5.974;2023-10-08T18:59:00;32.49;28.69;42.68;;
80864;Laerm;70936;51.680;5.974;2023-10-08T19:03:00;32.07;28.68;48.17;;
80864;Laerm;70936;51.680;5.974;2023-10-08T19:07:00;31.92;28.6;44.95;;
80864;Laerm;70936;51.680;5.974;2023-10-08T19:11:00;32.36;28.71;42.39;;
80864;Laerm;70936;51.680;5.974;2023-10-08T19:15:00;31.66;28.65;44.56;;
80864;Laerm;70936;51.680;5.974;2023-10-08T19:19:00;30.91;28.7;42.19;;
80864;Laerm;70936;51.680;5.974;2023-10-08T19:23:00;32.05;28.66;42.35;;
80864;Laerm;70936;51.680;5.974;2023-10-08T19:27:00;31.62;28.62;44.01;;
80864;Laerm;70936;51.680;5.974;2023-10-08T19:31:00;46.86;28.64;70.86;;
80864;Laerm;70936;51.680;5.974;2023-10-08T19:35:00;46.37;28.81;66.57;;
80864;Laerm;70936;51.680;5.974;2023-10-08T19:43:00;29.84;28.62;44.38;;
80864;Laerm;70936;51.680;5.974;2023-10-08T19:47:00;29.73;28.55;34.31;;
80864;Laerm;70936;51.680;5.974;2023-10-08T19:51:00;29.56;28.31;35.06;;
80864;Laerm;70936;51.680;5.974;2023-10-08T19:55:00;29.32;28.4;33.2;;
80864;Laerm;70936;51.680;5.974;2023-10-08T19:59:00;29.48;28.41;35.38;;
80864;Laerm;70936;51.680;5.974;2023-10-08T20:03:00;29.46;28.41;36.72;;
80864;Laerm;70936;51.680;5.974;2023-10-08T20:07:00;29.77;28.54;34.98;;
80864;Laerm;70936;51.680;5.974;2023-10-08T20:11:01;29.93;28.3;42.87;;
80864;Laerm;70936;51.680;5.974;2023-10-08T20:15:00;29.49;28.37;34.54;;
80864;Laerm;70936;51.680;5.974;2023-10-08T20:19:00;29.77;28.47;40.76;;
80864;Laerm;70936;51.680;5.974;2023-10-08T20:23:00;29.18;28.41;33.49;;
80864;Laerm;70936;51.680;5.974;2023-10-08T20:27:00;29.43;28.52;34.66;;
80864;Laerm;70936;51.680;5.974;2023-10-08T20:31:00;29.42;28.45;36.81;;
80864;Laerm;70936;51.680;5.974;2023-10-08T20:35:00;29.3;28.41;33.63;;
80864;Laerm;70936;51.680;5.974;2023-10-08T20:39:00;29.32;28.38;36.97;;
80864;Laerm;70936;51.680;5.974;2023-10-08T20:43:01;30.53;28.56;43.87;;
80864;Laerm;70936;51.680;5.974;2023-10-08T20:47:00;29.12;28.24;33.12;;
80864;Laerm;70936;51.680;5.974;2023-10-08T20:51:00;29.59;28.12;40.5;;
80864;Laerm;70936;51.680;5.974;2023-10-08T20:55:00;29.15;28.32;31.47;;
80864;Laerm;70936;51.680;5.974;2023-10-08T20:59:00;29.5;28.3;47.66;;
80864;Laerm;70936;51.680;5.974;2023-10-08T21:03:01;29.24;28.38;31.55;;
80864;Laerm;70936;51.680;5.974;2023-10-08T21:11:00;29.19;28.36;33.67;;
80864;Laerm;70936;51.680;5.974;2023-10-08T21:15:00;29.12;28.39;30.93;;
80864;Laerm;70936;51.680;5.974;2023-10-08T21:19:00;29.29;28.18;35.27;;
80864;Laerm;70936;51.680;5.974;2023-10-08T21:23:02;29.42;28.57;37.27;;
80864;Laerm;70936;51.680;5.974;2023-10-08T21:27:00;29.13;28.35;32.07;;
80864;Laerm;70936;51.680;5.974;2023-10-08T21:31:05;29.25;28.36;33.81;;
80864;Laerm;70936;51.680;5.974;2023-10-08T21:35:00;29.14;28.33;31.3;;
80864;Laerm;70936;51.680;5.974;2023-10-08T21:39:00;29.11;28.32;30.69;;
80864;Laerm;70936;51.680;5.974;2023-10-08T21:43:00;29.18;28.29;33.52;;
80864;Laerm;70936;51.680;5.974;2023-10-08T21:47:00;29.38;28.53;32.52;;
80864;Laerm;70936;51.680;5.974;2023-10-08T21:51:00;29.11;28.17;31.15;;
80864;Laerm;70936;51.680;5.974;2023-10-08T21:55:00;29.19;28.33;35.24;;
80864;Laerm;70936;51.680;5.974;2023-10-08T21:59:00;29.18;28.37;32.44;;
80864;Laerm;70936;51.680;5.974;2023-10-08T22:03:01;29.3;28.47;31.6;;
80864;Laerm;70936;51.680;5.974;2023-10-08T22:07:00;29.14;28.47;31.05;;
80864;Laerm;70936;51.680;5.974;2023-10-08T22:11:00;29.2;28.3;34.69;;
80864;Laerm;70936;51.680;5.974;2023-10-08T22:15:00;29.09;28.27;29.9;;
80864;Laerm;70936;51.680;5.974;2023-10-08T22:19:00;29.12;28.4;30.83;;
80864;Laerm;70936;51.680;5.974;2023-10-08T22:23:01;29.29;28.21;35.04;;
80864;Laerm;70936;51.680;5.974;2023-10-08T22:27:00;29.27;28.47;33.28;;
80864;Laerm;70936;51.680;5.974;2023-10-08T22:31:00;29.47;28.45;35.15;;
80864;Laerm;70936;51.680;5.974;2023-10-08T22:35:00;29.15;28.37;32.7;;
80864;Laerm;70936;51.680;5.974;2023-10-08T22:39:00;29.08;28.37;30.58;;